sensor_id;sensor_type;location;lat;lon;timestamp;P1;durP1;ratioP1;P2;durP2;ratioP2
19535;SDS011;9913;51.168;4.124;2022-12-15T00:00:01;36.47;;;20.43;;
19535;SDS011;9913;51.168;4.124;2022-12-15T00:02:49;36.07;;;20.80;;
19535;SDS011;9913;51.168;4.124;2022-12-15T00:05:36;36.23;;;21.30;;
19535;SDS011;9913;51.168;4.124;2022-12-15T00:08:22;40.23;;;20.43;;
19535;SDS011;9913;51.168;4.124;2022-12-15T00:11:08;39.50;;;19.93;;
19535;SDS011;9913;51.168;4.124;2022-12-15T00:13:53;38.37;;;21.00;;
19535;SDS011;9913;51.168;4.124;2022-12-15T00:16:39;36.40;;;20.03;;
19535;SDS011;9913;51.168;4.124;2022-12-15T00:19:25;41.70;;;20.67;;
19535;SDS011;9913;51.168;4.124;2022-12-15T00:22:11;32.37;;;19.87;;
19535;SDS011;9913;51.168;4.124;2022-12-15T00:24:57;41.30;;;21.87;;
19535;SDS011;9913;51.168;4.124;2022-12-15T00:27:42;35.87;;;20.60;;
19535;SDS011;9913;51.168;4.124;2022-12-15T00:30:28;38.60;;;19.53;;
19535;SDS011;9913;51.168;4.124;2022-12-15T00:33:15;36.90;;;19.70;;
19535;SDS011;9913;51.168;4.124;2022-12-15T00:36:01;35.40;;;19.40;;
19535;SDS011;9913;51.168;4.124;2022-12-15T00:38:48;39.07;;;19.93;;
19535;SDS011;9913;51.168;4.124;2022-12-15T00:41:17;41.87;;;19.57;;
19535;SDS011;9913;51.168;4.124;2022-12-15T00:43:46;37.90;;;20.77;;
19535;SDS011;9913;51.168;4.124;2022-12-15T00:46:14;43.43;;;20.17;;
19535;SDS011;9913;51.168;4.124;2022-12-15T00:49:12;39.00;;;19.43;;
19535;SDS011;9913;51.168;4.124;2022-12-15T00:51:54;44.50;;;20.20;;
19535;SDS011;9913;51.168;4.124;2022-12-15T00:54:41;41.97;;;19.90;;
19535;SDS011;9913;51.168;4.124;2022-12-15T00:57:27;43.80;;;20.83;;
19535;SDS011;9913;51.168;4.124;2022-12-15T01:00:13;43.63;;;20.10;;
19535;SDS011;9913;51.168;4.124;2022-12-15T01:02:59;37.07;;;20.27;;
19535;SDS011;9913;51.168;4.124;2022-12-15T01:05:45;39.97;;;21.43;;
19535;SDS011;9913;51.168;4.124;2022-12-15T01:08:30;41.30;;;20.33;;
19535;SDS011;9913;51.168;4.124;2022-12-15T01:11:17;37.33;;;19.50;;
19535;SDS011;9913;51.168;4.124;2022-12-15T01:14:03;36.13;;;19.53;;
19535;SDS011;9913;51.168;4.124;2022-12-15T01:16:49;42.97;;;20.73;;
19535;SDS011;9913;51.168;4.124;2022-12-15T01:19:34;34.30;;;18.73;;
19535;SDS011;9913;51.168;4.124;2022-12-15T01:22:20;39.07;;;18.60;;
19535;SDS011;9913;51.168;4.124;2022-12-15T01:24:48;36.00;;;18.37;;
19535;SDS011;9913;51.168;4.124;2022-12-15T01:27:18;44.23;;;21.07;;
19535;SDS011;9913;51.168;4.124;2022-12-15T01:29:46;29.73;;;17.80;;
19535;SDS011;9913;51.168;4.124;2022-12-15T01:32:14;37.90;;;20.03;;
19535;SDS011;9913;51.168;4.124;2022-12-15T01:34:43;36.17;;;18.37;;
19535;SDS011;9913;51.168;4.124;2022-12-15T01:37:11;36.30;;;18.83;;
19535;SDS011;9913;51.168;4.124;2022-12-15T01:39:39;36.60;;;18.47;;
19535;SDS011;9913;51.168;4.124;2022-12-15T01:42:27;30.43;;;17.63;;
19535;SDS011;9913;51.168;4.124;2022-12-15T01:47:58;31.70;;;17.80;;
19535;SDS011;9913;51.168;4.124;2022-12-15T01:50:29;30.47;;;17.60;;
19535;SDS011;9913;51.168;4.124;2022-12-15T01:52:59;39.03;;;18.77;;
19535;SDS011;9913;51.168;4.124;2022-12-15T01:55:28;33.13;;;17.97;;
19535;SDS011;9913;51.168;4.124;2022-12-15T01:58:01;34.80;;;20.13;;
19535;SDS011;9913;51.168;4.124;2022-12-15T02:00:32;36.87;;;18.90;;
19535;SDS011;9913;51.168;4.124;2022-12-15T02:03:01;33.77;;;18.43;;
19535;SDS011;9913;51.168;4.124;2022-12-15T02:05:32;41.13;;;20.30;;
19535;SDS011;9913;51.168;4.124;2022-12-15T02:08:01;38.03;;;21.07;;
19535;SDS011;9913;51.168;4.124;2022-12-15T02:10:33;44.07;;;21.53;;
19535;SDS011;9913;51.168;4.124;2022-12-15T02:13:18;41.67;;;22.30;;
19535;SDS011;9913;51.168;4.124;2022-12-15T02:15:52;39.10;;;20.30;;
19535;SDS011;9913;51.168;4.124;2022-12-15T02:18:27;48.20;;;24.47;;
19535;SDS011;9913;51.168;4.124;2022-12-15T02:21:03;46.63;;;23.60;;
19535;SDS011;9913;51.168;4.124;2022-12-15T02:33:02;44.47;;;23.20;;
19535;SDS011;9913;51.168;4.124;2022-12-15T02:35:37;47.27;;;23.20;;
19535;SDS011;9913;51.168;4.124;2022-12-15T02:38:14;44.10;;;23.43;;
19535;SDS011;9913;51.168;4.124;2022-12-15T02:40:43;43.83;;;24.77;;
19535;SDS011;9913;51.168;4.124;2022-12-15T02:43:11;47.30;;;24.57;;
19535;SDS011;9913;51.168;4.124;2022-12-15T02:45:44;46.40;;;25.07;;
19535;SDS011;9913;51.168;4.124;2022-12-15T02:48:21;44.10;;;23.30;;
19535;SDS011;9913;51.168;4.124;2022-12-15T02:51:00;43.57;;;22.60;;
19535;SDS011;9913;51.168;4.124;2022-12-15T02:56:50;45.77;;;25.67;;
19535;SDS011;9913;51.168;4.124;2022-12-15T02:59:31;47.27;;;24.37;;
19535;SDS011;9913;51.168;4.124;2022-12-15T03:02:07;46.80;;;25.47;;
19535;SDS011;9913;51.168;4.124;2022-12-15T03:04:37;48.40;;;23.97;;
19535;SDS011;9913;51.168;4.124;2022-12-15T03:07:07;43.80;;;23.03;;
19535;SDS011;9913;51.168;4.124;2022-12-15T03:09:36;47.00;;;23.73;;
19535;SDS011;9913;51.168;4.124;2022-12-15T03:12:05;42.20;;;23.37;;
19535;SDS011;9913;51.168;4.124;2022-12-15T03:14:36;40.27;;;21.90;;
19535;SDS011;9913;51.168;4.124;2022-12-15T03:17:06;46.70;;;24.30;;
19535;SDS011;9913;51.168;4.124;2022-12-15T03:19:35;49.97;;;23.80;;
19535;SDS011;9913;51.168;4.124;2022-12-15T03:22:03;46.43;;;24.00;;
19535;SDS011;9913;51.168;4.124;2022-12-15T03:24:31;45.97;;;24.63;;
19535;SDS011;9913;51.168;4.124;2022-12-15T03:27:00;46.60;;;23.80;;
19535;SDS011;9913;51.168;4.124;2022-12-15T03:29:28;41.27;;;22.77;;
19535;SDS011;9913;51.168;4.124;2022-12-15T03:31:56;46.30;;;24.47;;
19535;SDS011;9913;51.168;4.124;2022-12-15T03:34:26;41.43;;;23.27;;
19535;SDS011;9913;51.168;4.124;2022-12-15T03:36:54;47.47;;;23.50;;
19535;SDS011;9913;51.168;4.124;2022-12-15T03:39:22;47.60;;;23.60;;
19535;SDS011;9913;51.168;4.124;2022-12-15T03:41:51;43.23;;;22.50;;
19535;SDS011;9913;51.168;4.124;2022-12-15T03:44:19;46.80;;;23.23;;
19535;SDS011;9913;51.168;4.124;2022-12-15T03:46:47;46.57;;;24.27;;
19535;SDS011;9913;51.168;4.124;2022-12-15T03:49:16;42.90;;;23.67;;
19535;SDS011;9913;51.168;4.124;2022-12-15T03:51:45;46.87;;;23.57;;
19535;SDS011;9913;51.168;4.124;2022-12-15T03:54:14;42.90;;;23.03;;
19535;SDS011;9913;51.168;4.124;2022-12-15T03:56:42;42.67;;;23.50;;
19535;SDS011;9913;51.168;4.124;2022-12-15T03:59:11;40.37;;;22.60;;
19535;SDS011;9913;51.168;4.124;2022-12-15T04:01:39;42.87;;;21.83;;
19535;SDS011;9913;51.168;4.124;2022-12-15T04:04:13;43.67;;;21.77;;
19535;SDS011;9913;51.168;4.124;2022-12-15T04:06:41;50.13;;;22.90;;
19535;SDS011;9913;51.168;4.124;2022-12-15T04:09:11;45.87;;;23.40;;
19535;SDS011;9913;51.168;4.124;2022-12-15T04:11:39;51.00;;;22.43;;
19535;SDS011;9913;51.168;4.124;2022-12-15T04:14:07;37.00;;;21.90;;
19535;SDS011;9913;51.168;4.124;2022-12-15T04:16:36;46.23;;;21.73;;
19535;SDS011;9913;51.168;4.124;2022-12-15T04:19:04;45.13;;;22.97;;
19535;SDS011;9913;51.168;4.124;2022-12-15T04:21:50;46.80;;;23.90;;
19535;SDS011;9913;51.168;4.124;2022-12-15T04:24:19;43.80;;;22.97;;
19535;SDS011;9913;51.168;4.124;2022-12-15T04:27:05;42.63;;;24.03;;
19535;SDS011;9913;51.168;4.124;2022-12-15T04:29:50;43.00;;;22.90;;
19535;SDS011;9913;51.168;4.124;2022-12-15T04:32:36;48.87;;;24.07;;
19535;SDS011;9913;51.168;4.124;2022-12-15T04:35:22;43.93;;;22.40;;
19535;SDS011;9913;51.168;4.124;2022-12-15T04:38:07;41.53;;;20.60;;
19535;SDS011;9913;51.168;4.124;2022-12-15T04:40:55;42.93;;;21.77;;
19535;SDS011;9913;51.168;4.124;2022-12-15T04:43:41;45.60;;;22.67;;
19535;SDS011;9913;51.168;4.124;2022-12-15T04:46:27;48.63;;;21.40;;
19535;SDS011;9913;51.168;4.124;2022-12-15T04:49:12;43.80;;;20.37;;
19535;SDS011;9913;51.168;4.124;2022-12-15T04:51:58;39.97;;;21.80;;
19535;SDS011;9913;51.168;4.124;2022-12-15T04:54:43;44.53;;;21.53;;
19535;SDS011;9913;51.168;4.124;2022-12-15T04:57:30;40.93;;;21.30;;
19535;SDS011;9913;51.168;4.124;2022-12-15T05:00:16;39.17;;;21.27;;
19535;SDS011;9913;51.168;4.124;2022-12-15T05:03:03;45.67;;;21.80;;
19535;SDS011;9913;51.168;4.124;2022-12-15T05:05:49;42.93;;;22.20;;
19535;SDS011;9913;51.168;4.124;2022-12-15T05:08:35;45.20;;;21.73;;
19535;SDS011;9913;51.168;4.124;2022-12-15T05:11:21;43.63;;;20.67;;
19535;SDS011;9913;51.168;4.124;2022-12-15T05:14:08;39.93;;;20.13;;
19535;SDS011;9913;51.168;4.124;2022-12-15T05:16:53;40.33;;;19.87;;
19535;SDS011;9913;51.168;4.124;2022-12-15T05:19:39;42.57;;;22.03;;
19535;SDS011;9913;51.168;4.124;2022-12-15T05:22:25;35.70;;;20.77;;
19535;SDS011;9913;51.168;4.124;2022-12-15T05:25:10;40.13;;;21.47;;
19535;SDS011;9913;51.168;4.124;2022-12-15T05:27:56;38.67;;;21.33;;
19535;SDS011;9913;51.168;4.124;2022-12-15T05:30:43;47.73;;;22.60;;
19535;SDS011;9913;51.168;4.124;2022-12-15T05:33:29;41.53;;;20.73;;
19535;SDS011;9913;51.168;4.124;2022-12-15T05:35:57;37.03;;;19.83;;
19535;SDS011;9913;51.168;4.124;2022-12-15T05:38:26;44.63;;;22.87;;
19535;SDS011;9913;51.168;4.124;2022-12-15T05:40:55;42.73;;;22.70;;
19535;SDS011;9913;51.168;4.124;2022-12-15T05:43:24;43.70;;;22.50;;
19535;SDS011;9913;51.168;4.124;2022-12-15T05:45:54;42.93;;;23.97;;
19535;SDS011;9913;51.168;4.124;2022-12-15T05:48:22;46.37;;;23.90;;
19535;SDS011;9913;51.168;4.124;2022-12-15T05:50:50;41.97;;;21.33;;
19535;SDS011;9913;51.168;4.124;2022-12-15T05:53:19;42.50;;;22.37;;
19535;SDS011;9913;51.168;4.124;2022-12-15T05:55:47;43.50;;;23.90;;
19535;SDS011;9913;51.168;4.124;2022-12-15T05:58:15;44.83;;;22.57;;
19535;SDS011;9913;51.168;4.124;2022-12-15T06:00:43;42.63;;;23.23;;
19535;SDS011;9913;51.168;4.124;2022-12-15T06:03:13;39.17;;;21.53;;
19535;SDS011;9913;51.168;4.124;2022-12-15T06:05:42;43.10;;;22.00;;
19535;SDS011;9913;51.168;4.124;2022-12-15T06:08:10;42.13;;;22.93;;
19535;SDS011;9913;51.168;4.124;2022-12-15T06:10:38;40.60;;;21.97;;
19535;SDS011;9913;51.168;4.124;2022-12-15T06:13:06;50.73;;;23.17;;
19535;SDS011;9913;51.168;4.124;2022-12-15T06:15:35;44.23;;;21.40;;
19535;SDS011;9913;51.168;4.124;2022-12-15T06:18:03;43.67;;;21.93;;
19535;SDS011;9913;51.168;4.124;2022-12-15T06:20:33;43.10;;;23.97;;
19535;SDS011;9913;51.168;4.124;2022-12-15T06:23:01;47.87;;;23.07;;
19535;SDS011;9913;51.168;4.124;2022-12-15T06:25:29;40.97;;;21.17;;
19535;SDS011;9913;51.168;4.124;2022-12-15T06:27:57;42.47;;;22.57;;
19535;SDS011;9913;51.168;4.124;2022-12-15T06:30:27;41.33;;;23.57;;
19535;SDS011;9913;51.168;4.124;2022-12-15T06:32:56;41.53;;;22.57;;
19535;SDS011;9913;51.168;4.124;2022-12-15T06:35:24;41.27;;;21.90;;
19535;SDS011;9913;51.168;4.124;2022-12-15T06:37:54;40.77;;;22.97;;
19535;SDS011;9913;51.168;4.124;2022-12-15T06:40:22;42.17;;;20.50;;
19535;SDS011;9913;51.168;4.124;2022-12-15T06:42:50;41.67;;;21.00;;
19535;SDS011;9913;51.168;4.124;2022-12-15T06:45:18;40.93;;;21.63;;
19535;SDS011;9913;51.168;4.124;2022-12-15T06:47:47;43.57;;;20.27;;
19535;SDS011;9913;51.168;4.124;2022-12-15T06:50:15;41.70;;;20.60;;
19535;SDS011;9913;51.168;4.124;2022-12-15T06:52:44;37.63;;;20.67;;
19535;SDS011;9913;51.168;4.124;2022-12-15T06:55:13;40.03;;;20.57;;
19535;SDS011;9913;51.168;4.124;2022-12-15T06:57:42;35.50;;;21.67;;
19535;SDS011;9913;51.168;4.124;2022-12-15T07:00:10;48.47;;;22.23;;
19535;SDS011;9913;51.168;4.124;2022-12-15T07:02:40;46.70;;;22.57;;
19535;SDS011;9913;51.168;4.124;2022-12-15T07:05:15;38.47;;;20.57;;
19535;SDS011;9913;51.168;4.124;2022-12-15T07:07:43;46.87;;;22.87;;
19535;SDS011;9913;51.168;4.124;2022-12-15T07:10:13;46.00;;;22.83;;
19535;SDS011;9913;51.168;4.124;2022-12-15T07:12:41;43.13;;;22.47;;
19535;SDS011;9913;51.168;4.124;2022-12-15T07:15:10;55.07;;;24.87;;
19535;SDS011;9913;51.168;4.124;2022-12-15T07:17:38;53.63;;;26.43;;
19535;SDS011;9913;51.168;4.124;2022-12-15T07:20:07;50.80;;;25.80;;
19535;SDS011;9913;51.168;4.124;2022-12-15T07:22:36;55.80;;;25.53;;
19535;SDS011;9913;51.168;4.124;2022-12-15T07:25:05;52.80;;;24.43;;
19535;SDS011;9913;51.168;4.124;2022-12-15T07:27:36;49.57;;;24.63;;
19535;SDS011;9913;51.168;4.124;2022-12-15T07:30:04;51.10;;;24.97;;
19535;SDS011;9913;51.168;4.124;2022-12-15T07:32:33;45.13;;;23.43;;
19535;SDS011;9913;51.168;4.124;2022-12-15T07:35:02;44.07;;;23.53;;
19535;SDS011;9913;51.168;4.124;2022-12-15T07:37:33;45.63;;;23.53;;
19535;SDS011;9913;51.168;4.124;2022-12-15T07:40:03;45.43;;;23.17;;
19535;SDS011;9913;51.168;4.124;2022-12-15T07:42:32;48.83;;;23.13;;
19535;SDS011;9913;51.168;4.124;2022-12-15T07:45:02;46.53;;;25.57;;
19535;SDS011;9913;51.168;4.124;2022-12-15T07:47:31;51.47;;;23.63;;
19535;SDS011;9913;51.168;4.124;2022-12-15T07:49:59;51.80;;;23.77;;
19535;SDS011;9913;51.168;4.124;2022-12-15T07:52:28;50.93;;;23.47;;
19535;SDS011;9913;51.168;4.124;2022-12-15T07:54:56;49.57;;;24.77;;
19535;SDS011;9913;51.168;4.124;2022-12-15T07:57:25;53.10;;;24.00;;
19535;SDS011;9913;51.168;4.124;2022-12-15T07:59:53;45.73;;;25.80;;
19535;SDS011;9913;51.168;4.124;2022-12-15T08:02:24;48.87;;;25.53;;
19535;SDS011;9913;51.168;4.124;2022-12-15T08:04:52;49.77;;;23.93;;
19535;SDS011;9913;51.168;4.124;2022-12-15T08:07:21;49.03;;;23.70;;
19535;SDS011;9913;51.168;4.124;2022-12-15T08:09:49;54.93;;;22.10;;
19535;SDS011;9913;51.168;4.124;2022-12-15T08:12:19;48.40;;;24.67;;
19535;SDS011;9913;51.168;4.124;2022-12-15T08:14:47;48.93;;;24.77;;
19535;SDS011;9913;51.168;4.124;2022-12-15T08:17:16;45.67;;;22.80;;
19535;SDS011;9913;51.168;4.124;2022-12-15T08:19:45;49.87;;;22.97;;
19535;SDS011;9913;51.168;4.124;2022-12-15T08:22:14;42.60;;;24.40;;
19535;SDS011;9913;51.168;4.124;2022-12-15T08:24:42;43.17;;;25.47;;
19535;SDS011;9913;51.168;4.124;2022-12-15T08:27:10;54.17;;;27.40;;
19535;SDS011;9913;51.168;4.124;2022-12-15T08:29:38;54.43;;;28.03;;
19535;SDS011;9913;51.168;4.124;2022-12-15T08:32:17;47.90;;;25.23;;
19535;SDS011;9913;51.168;4.124;2022-12-15T08:34:47;50.27;;;26.73;;
19535;SDS011;9913;51.168;4.124;2022-12-15T08:37:15;46.10;;;25.57;;
19535;SDS011;9913;51.168;4.124;2022-12-15T08:39:44;44.73;;;26.07;;
19535;SDS011;9913;51.168;4.124;2022-12-15T08:42:13;50.80;;;25.53;;
19535;SDS011;9913;51.168;4.124;2022-12-15T08:44:41;50.90;;;27.67;;
19535;SDS011;9913;51.168;4.124;2022-12-15T08:47:10;57.23;;;26.97;;
19535;SDS011;9913;51.168;4.124;2022-12-15T08:49:38;48.07;;;26.97;;
19535;SDS011;9913;51.168;4.124;2022-12-15T08:52:08;54.13;;;26.23;;
19535;SDS011;9913;51.168;4.124;2022-12-15T08:54:36;44.17;;;26.40;;
19535;SDS011;9913;51.168;4.124;2022-12-15T08:57:04;59.10;;;28.03;;
19535;SDS011;9913;51.168;4.124;2022-12-15T08:59:33;59.27;;;27.73;;
19535;SDS011;9913;51.168;4.124;2022-12-15T09:02:01;85.00;;;30.63;;
19535;SDS011;9913;51.168;4.124;2022-12-15T09:04:30;114.83;;;31.07;;
19535;SDS011;9913;51.168;4.124;2022-12-15T09:06:58;71.27;;;27.70;;
19535;SDS011;9913;51.168;4.124;2022-12-15T09:09:28;54.53;;;26.30;;
19535;SDS011;9913;51.168;4.124;2022-12-15T09:11:56;47.63;;;25.10;;
19535;SDS011;9913;51.168;4.124;2022-12-15T09:14:24;50.47;;;23.93;;
19535;SDS011;9913;51.168;4.124;2022-12-15T09:16:55;60.93;;;27.77;;
19535;SDS011;9913;51.168;4.124;2022-12-15T09:19:23;56.60;;;25.60;;
19535;SDS011;9913;51.168;4.124;2022-12-15T09:21:52;84.00;;;26.80;;
19535;SDS011;9913;51.168;4.124;2022-12-15T09:24:21;117.70;;;34.80;;
19535;SDS011;9913;51.168;4.124;2022-12-15T09:27:01;87.33;;;28.00;;
19535;SDS011;9913;51.168;4.124;2022-12-15T09:29:30;92.77;;;30.80;;
19535;SDS011;9913;51.168;4.124;2022-12-15T09:31:58;87.60;;;32.93;;
19535;SDS011;9913;51.168;4.124;2022-12-15T09:34:27;83.07;;;32.40;;
19535;SDS011;9913;51.168;4.124;2022-12-15T09:36:55;64.03;;;26.00;;
19535;SDS011;9913;51.168;4.124;2022-12-15T09:39:23;76.53;;;23.43;;
19535;SDS011;9913;51.168;4.124;2022-12-15T09:41:52;60.40;;;24.83;;
19535;SDS011;9913;51.168;4.124;2022-12-15T09:44:24;58.73;;;25.87;;
19535;SDS011;9913;51.168;4.124;2022-12-15T09:46:56;69.67;;;27.27;;
19535;SDS011;9913;51.168;4.124;2022-12-15T09:49:35;67.77;;;26.63;;
19535;SDS011;9913;51.168;4.124;2022-12-15T09:52:13;54.03;;;22.93;;
19535;SDS011;9913;51.168;4.124;2022-12-15T09:54:44;42.73;;;20.60;;
19535;SDS011;9913;51.168;4.124;2022-12-15T09:57:15;45.33;;;21.43;;
19535;SDS011;9913;51.168;4.124;2022-12-15T10:06:08;44.13;;;21.60;;
19535;SDS011;9913;51.168;4.124;2022-12-15T10:08:46;47.63;;;24.23;;
19535;SDS011;9913;51.168;4.124;2022-12-15T10:11:20;55.90;;;24.03;;
19535;SDS011;9913;51.168;4.124;2022-12-15T10:13:55;47.10;;;24.30;;
19535;SDS011;9913;51.168;4.124;2022-12-15T10:16:29;50.20;;;24.80;;
19535;SDS011;9913;51.168;4.124;2022-12-15T10:19:06;46.63;;;23.90;;
19535;SDS011;9913;51.168;4.124;2022-12-15T10:21:38;49.80;;;25.97;;
19535;SDS011;9913;51.168;4.124;2022-12-15T10:24:11;87.17;;;28.60;;
19535;SDS011;9913;51.168;4.124;2022-12-15T10:27:07;52.33;;;24.87;;
19535;SDS011;9913;51.168;4.124;2022-12-15T10:29:49;47.23;;;25.70;;
19535;SDS011;9913;51.168;4.124;2022-12-15T10:32:30;51.13;;;26.17;;
19535;SDS011;9913;51.168;4.124;2022-12-15T10:35:12;53.37;;;25.83;;
19535;SDS011;9913;51.168;4.124;2022-12-15T10:37:42;50.77;;;26.30;;
19535;SDS011;9913;51.168;4.124;2022-12-15T10:40:13;47.13;;;25.77;;
19535;SDS011;9913;51.168;4.124;2022-12-15T10:42:45;65.67;;;25.73;;
19535;SDS011;9913;51.168;4.124;2022-12-15T10:45:28;66.20;;;26.57;;
19535;SDS011;9913;51.168;4.124;2022-12-15T10:48:02;56.67;;;28.10;;
19535;SDS011;9913;51.168;4.124;2022-12-15T10:50:32;60.27;;;27.67;;
19535;SDS011;9913;51.168;4.124;2022-12-15T10:53:05;64.27;;;27.17;;
19535;SDS011;9913;51.168;4.124;2022-12-15T10:55:36;50.57;;;25.50;;
19535;SDS011;9913;51.168;4.124;2022-12-15T10:58:13;63.03;;;27.93;;
19535;SDS011;9913;51.168;4.124;2022-12-15T11:00:43;45.67;;;24.27;;
19535;SDS011;9913;51.168;4.124;2022-12-15T11:03:21;49.47;;;25.93;;
19535;SDS011;9913;51.168;4.124;2022-12-15T11:05:52;49.50;;;25.03;;
19535;SDS011;9913;51.168;4.124;2022-12-15T11:08:21;48.07;;;24.23;;
19535;SDS011;9913;51.168;4.124;2022-12-15T11:10:51;42.77;;;23.70;;
19535;SDS011;9913;51.168;4.124;2022-12-15T11:13:38;44.77;;;23.07;;
19535;SDS011;9913;51.168;4.124;2022-12-15T11:16:13;45.47;;;23.37;;
19535;SDS011;9913;51.168;4.124;2022-12-15T11:18:44;47.03;;;23.10;;
19535;SDS011;9913;51.168;4.124;2022-12-15T11:21:18;47.83;;;23.50;;
19535;SDS011;9913;51.168;4.124;2022-12-15T11:23:50;45.37;;;23.17;;
19535;SDS011;9913;51.168;4.124;2022-12-15T11:26:26;38.93;;;22.47;;
19535;SDS011;9913;51.168;4.124;2022-12-15T11:29:05;37.43;;;22.63;;
19535;SDS011;9913;51.168;4.124;2022-12-15T11:31:43;51.07;;;24.07;;
19535;SDS011;9913;51.168;4.124;2022-12-15T11:34:16;38.73;;;22.07;;
19535;SDS011;9913;51.168;4.124;2022-12-15T11:37:07;41.07;;;22.17;;
19535;SDS011;9913;51.168;4.124;2022-12-15T11:39:48;42.03;;;23.47;;
19535;SDS011;9913;51.168;4.124;2022-12-15T11:42:29;40.27;;;22.03;;
19535;SDS011;9913;51.168;4.124;2022-12-15T11:45:06;37.47;;;23.20;;
19535;SDS011;9913;51.168;4.124;2022-12-15T11:47:42;44.13;;;22.97;;
19535;SDS011;9913;51.168;4.124;2022-12-15T11:50:23;43.60;;;25.00;;
19535;SDS011;9913;51.168;4.124;2022-12-15T11:53:03;42.80;;;23.47;;
19535;SDS011;9913;51.168;4.124;2022-12-15T11:55:50;38.80;;;23.33;;
19535;SDS011;9913;51.168;4.124;2022-12-15T12:01:26;42.93;;;23.97;;
19535;SDS011;9913;51.168;4.124;2022-12-15T12:04:20;41.03;;;24.67;;
19535;SDS011;9913;51.168;4.124;2022-12-15T12:06:55;44.27;;;23.80;;
19535;SDS011;9913;51.168;4.124;2022-12-15T12:09:34;41.70;;;23.57;;
19535;SDS011;9913;51.168;4.124;2022-12-15T12:12:09;38.97;;;22.00;;
19535;SDS011;9913;51.168;4.124;2022-12-15T12:14:47;44.50;;;21.73;;
19535;SDS011;9913;51.168;4.124;2022-12-15T12:17:26;37.83;;;23.63;;
19535;SDS011;9913;51.168;4.124;2022-12-15T12:20:07;37.07;;;22.63;;
19535;SDS011;9913;51.168;4.124;2022-12-15T12:22:43;38.90;;;22.67;;
19535;SDS011;9913;51.168;4.124;2022-12-15T12:25:21;40.37;;;22.20;;
19535;SDS011;9913;51.168;4.124;2022-12-15T12:27:51;38.73;;;21.03;;
19535;SDS011;9913;51.168;4.124;2022-12-15T12:30:22;42.03;;;21.53;;
19535;SDS011;9913;51.168;4.124;2022-12-15T12:32:55;35.37;;;21.90;;
19535;SDS011;9913;51.168;4.124;2022-12-15T12:35:32;37.80;;;21.43;;
19535;SDS011;9913;51.168;4.124;2022-12-15T12:38:07;33.83;;;21.23;;
19535;SDS011;9913;51.168;4.124;2022-12-15T12:40:43;35.13;;;22.13;;
19535;SDS011;9913;51.168;4.124;2022-12-15T12:43:21;38.30;;;21.53;;
19535;SDS011;9913;51.168;4.124;2022-12-15T12:46:00;36.00;;;21.77;;
19535;SDS011;9913;51.168;4.124;2022-12-15T12:48:34;36.57;;;21.90;;
19535;SDS011;9913;51.168;4.124;2022-12-15T12:51:09;40.73;;;21.40;;
19535;SDS011;9913;51.168;4.124;2022-12-15T12:53:44;40.43;;;21.83;;
19535;SDS011;9913;51.168;4.124;2022-12-15T12:59:09;35.83;;;20.90;;
19535;SDS011;9913;51.168;4.124;2022-12-15T13:14:25;40.13;;;22.67;;
19535;SDS011;9913;51.168;4.124;2022-12-15T13:17:15;39.17;;;21.50;;
19535;SDS011;9913;51.168;4.124;2022-12-15T13:20:15;38.77;;;21.17;;
19535;SDS011;9913;51.168;4.124;2022-12-15T13:22:48;37.50;;;21.63;;
19535;SDS011;9913;51.168;4.124;2022-12-15T13:28:16;41.93;;;23.53;;
19535;SDS011;9913;51.168;4.124;2022-12-15T13:33:49;42.17;;;22.97;;
19535;SDS011;9913;51.168;4.124;2022-12-15T13:39:34;35.03;;;20.97;;
19535;SDS011;9913;51.168;4.124;2022-12-15T13:42:31;38.60;;;20.37;;
19535;SDS011;9913;51.168;4.124;2022-12-15T13:48:24;37.47;;;19.67;;
19535;SDS011;9913;51.168;4.124;2022-12-15T13:51:05;36.63;;;21.10;;
19535;SDS011;9913;51.168;4.124;2022-12-15T13:53:45;40.17;;;20.67;;
19535;SDS011;9913;51.168;4.124;2022-12-15T13:56:39;31.07;;;19.40;;
19535;SDS011;9913;51.168;4.124;2022-12-15T13:59:23;34.47;;;19.77;;
19535;SDS011;9913;51.168;4.124;2022-12-15T14:01:58;37.97;;;18.70;;
19535;SDS011;9913;51.168;4.124;2022-12-15T14:04:27;37.27;;;20.13;;
19535;SDS011;9913;51.168;4.124;2022-12-15T14:06:56;36.93;;;19.33;;
19535;SDS011;9913;51.168;4.124;2022-12-15T14:09:28;29.10;;;19.23;;
19535;SDS011;9913;51.168;4.124;2022-12-15T14:12:00;31.60;;;19.30;;
19535;SDS011;9913;51.168;4.124;2022-12-15T14:14:31;31.83;;;19.37;;
19535;SDS011;9913;51.168;4.124;2022-12-15T14:17:05;35.03;;;19.63;;
19535;SDS011;9913;51.168;4.124;2022-12-15T14:19:37;38.57;;;21.27;;
19535;SDS011;9913;51.168;4.124;2022-12-15T14:22:16;36.67;;;20.73;;
19535;SDS011;9913;51.168;4.124;2022-12-15T14:24:58;33.27;;;19.33;;
19535;SDS011;9913;51.168;4.124;2022-12-15T14:27:30;29.20;;;19.23;;
19535;SDS011;9913;51.168;4.124;2022-12-15T14:30:10;34.80;;;19.87;;
19535;SDS011;9913;51.168;4.124;2022-12-15T14:32:54;31.27;;;18.87;;
19535;SDS011;9913;51.168;4.124;2022-12-15T14:35:30;32.63;;;19.77;;
19535;SDS011;9913;51.168;4.124;2022-12-15T14:38:05;38.10;;;20.27;;
19535;SDS011;9913;51.168;4.124;2022-12-15T14:40:38;34.93;;;19.97;;
19535;SDS011;9913;51.168;4.124;2022-12-15T14:43:10;33.60;;;20.00;;
19535;SDS011;9913;51.168;4.124;2022-12-15T14:45:42;34.90;;;19.50;;
19535;SDS011;9913;51.168;4.124;2022-12-15T14:48:15;30.30;;;19.87;;
19535;SDS011;9913;51.168;4.124;2022-12-15T14:51:11;32.90;;;19.53;;
19535;SDS011;9913;51.168;4.124;2022-12-15T14:53:41;37.87;;;21.93;;
19535;SDS011;9913;51.168;4.124;2022-12-15T14:56:25;37.80;;;20.77;;
19535;SDS011;9913;51.168;4.124;2022-12-15T14:58:58;35.47;;;20.33;;
19535;SDS011;9913;51.168;4.124;2022-12-15T15:01:33;39.77;;;22.10;;
19535;SDS011;9913;51.168;4.124;2022-12-15T15:04:22;36.23;;;21.70;;
19535;SDS011;9913;51.168;4.124;2022-12-15T15:06:55;34.87;;;21.53;;
19535;SDS011;9913;51.168;4.124;2022-12-15T15:09:26;43.93;;;26.80;;
19535;SDS011;9913;51.168;4.124;2022-12-15T15:11:56;43.33;;;24.20;;
19535;SDS011;9913;51.168;4.124;2022-12-15T15:14:29;49.67;;;30.90;;
19535;SDS011;9913;51.168;4.124;2022-12-15T15:17:00;42.07;;;25.70;;
19535;SDS011;9913;51.168;4.124;2022-12-15T15:19:34;48.00;;;29.03;;
19535;SDS011;9913;51.168;4.124;2022-12-15T15:22:11;48.13;;;26.90;;
19535;SDS011;9913;51.168;4.124;2022-12-15T15:24:52;44.33;;;26.23;;
19535;SDS011;9913;51.168;4.124;2022-12-15T15:27:22;42.03;;;25.03;;
19535;SDS011;9913;51.168;4.124;2022-12-15T15:29:52;49.60;;;27.00;;
19535;SDS011;9913;51.168;4.124;2022-12-15T15:32:47;40.70;;;25.60;;
19535;SDS011;9913;51.168;4.124;2022-12-15T15:35:18;42.87;;;26.30;;
19535;SDS011;9913;51.168;4.124;2022-12-15T15:37:47;43.97;;;25.93;;
19535;SDS011;9913;51.168;4.124;2022-12-15T15:40:17;44.67;;;24.77;;
19535;SDS011;9913;51.168;4.124;2022-12-15T15:42:45;38.67;;;24.87;;
19535;SDS011;9913;51.168;4.124;2022-12-15T15:45:14;46.57;;;27.07;;
19535;SDS011;9913;51.168;4.124;2022-12-15T15:47:44;54.53;;;30.37;;
19535;SDS011;9913;51.168;4.124;2022-12-15T15:50:16;57.90;;;31.47;;
19535;SDS011;9913;51.168;4.124;2022-12-15T15:52:52;54.80;;;30.43;;
19535;SDS011;9913;51.168;4.124;2022-12-15T15:55:21;50.83;;;29.40;;
19535;SDS011;9913;51.168;4.124;2022-12-15T15:57:59;54.83;;;28.70;;
19535;SDS011;9913;51.168;4.124;2022-12-15T16:00:27;62.73;;;31.33;;
19535;SDS011;9913;51.168;4.124;2022-12-15T16:02:55;58.43;;;29.33;;
19535;SDS011;9913;51.168;4.124;2022-12-15T16:05:25;51.97;;;28.63;;
19535;SDS011;9913;51.168;4.124;2022-12-15T16:07:54;62.17;;;32.07;;